Time;durP1;ratioP1;P1;durP2;ratioP2;P2;SDS_P1;SDS_P2;PMS_P1;PMS_P2;Temp;Humidity;BMP_temperature;BMP_pressure;BME280_temperature;BME280_humidity;BME280_pressure;Samples;Min_cycle;Max_cycle;Signal;HPM_P1;HPM_P2
2022/05/05 00:00:22;;;;;;;;;;;;;;;11.14;100.00;99435.16;5072266;28;19925;-80
2022/05/05 00:02:49;;;;;;;;;;;;;;;11.39;100.00;99438.41;5089192;28;19931;-80
2022/05/05 00:05:17;;;;;;;;;;;;;;;11.21;100.00;99435.06;5073769;28;19936;-80
2022/05/05 00:07:44;;;;;;;;;;;;;;;11.48;100.00;99443.50;5088824;28;19931;-81
2022/05/05 00:15:44;;;;;;;;;;;;;;;11.08;100.00;99452.81;5092468;28;19924;-80
2022/05/05 00:18:12;;;;;;;;;;;;;;;11.27;100.00;99455.75;5077200;28;19935;-80
2022/05/05 00:20:39;;;;;;;;;;;;;;;11.47;100.00;99441.91;5110013;28;20425;-80
2022/05/05 00:23:06;;;;;;;;;;;;;;;11.28;100.00;99462.16;5077613;28;19931;-80
2022/05/05 00:25:33;;;;;;;;;;;;;;;11.13;100.00;99458.75;5076502;28;20002;-80
2022/05/05 00:28:00;;;;;;;;;;;;;;;11.10;100.00;99467.16;5075638;28;19998;-80
2022/05/05 00:30:29;;;;;;;;;;;;;;;11.08;100.00;99459.19;5077316;28;19924;-81
2022/05/05 00:32:56;;;;;;;;;;;;;;;11.23;100.00;99459.81;5075918;28;20018;-80
2022/05/05 00:35:24;;;;;;;;;;;;;;;11.28;100.00;99465.75;5075469;28;20007;-80
2022/05/05 00:37:51;;;;;;;;;;;;;;;11.05;100.00;99453.63;5059122;28;19924;-80
2022/05/05 00:40:18;;;;;;;;;;;;;;;11.37;100.00;99457.66;5058905;28;19924;-80
2022/05/05 00:42:46;;;;;;;;;;;;;;;11.19;100.00;99464.66;5092895;28;19924;-80
2022/05/05 00:45:13;;;;;;;;;;;;;;;11.22;100.00;99459.03;5075576;28;19931;-80
2022/05/05 00:47:42;;;;;;;;;;;;;;;10.98;100.00;99464.91;5058845;28;20078;-80
2022/05/05 00:50:10;;;;;;;;;;;;;;;11.18;100.00;99461.06;5058222;28;20273;-80
2022/05/05 00:52:37;;;;;;;;;;;;;;;11.58;100.00;99462.16;5075144;28;20476;-80
2022/05/05 00:55:05;;;;;;;;;;;;;;;11.43;100.00;99467.16;5076515;28;19931;-80
2022/05/05 00:57:32;;;;;;;;;;;;;;;11.56;100.00;99462.56;5076799;28;19928;-80
2022/05/05 01:00:00;;;;;;;;;;;;;;;11.43;100.00;99464.38;5076398;28;19924;-80
2022/05/05 01:02:27;;;;;;;;;;;;;;;11.73;100.00;99460.78;5091992;28;19929;-80
2022/05/05 01:04:56;;;;;;;;;;;;;;;11.23;100.00;99469.00;5075321;28;19925;-80
2022/05/05 01:07:25;;;;;;;;;;;;;;;11.00;100.00;99477.25;5058391;28;19930;-80
2022/05/05 01:09:53;;;;;;;;;;;;;;;11.85;100.00;99469.41;5108925;28;19930;-80
2022/05/05 01:12:22;;;;;;;;;;;;;;;11.62;100.00;99483.31;5091951;28;19926;-80
2022/05/05 01:14:49;;;;;;;;;;;;;;;11.54;100.00;99476.19;5108981;28;19932;-80
2022/05/05 01:17:16;;;;;;;;;;;;;;;11.59;100.00;99484.13;5076177;28;20375;-80
2022/05/05 01:19:44;;;;;;;;;;;;;;;11.45;100.00;99475.91;5075644;28;19939;-80
2022/05/05 01:22:11;;;;;;;;;;;;;;;11.07;100.00;99495.97;5075025;28;19948;-80
2022/05/05 01:30:10;;;;;;;;;;;;;;;11.24;100.00;99495.75;5076271;28;19929;-80
2022/05/05 01:32:37;;;;;;;;;;;;;;;11.33;100.00;99493.25;5075624;28;19942;-80
2022/05/05 01:35:05;;;;;;;;;;;;;;;11.44;100.00;99496.72;5091140;28;19933;-80
2022/05/05 01:37:32;;;;;;;;;;;;;;;11.63;100.00;99498.88;5074772;28;19924;-80
2022/05/05 01:39:59;;;;;;;;;;;;;;;11.52;100.00;99501.03;5091424;28;20016;-80
2022/05/05 01:42:27;;;;;;;;;;;;;;;11.28;100.00;99506.91;5074295;28;20023;-80
2022/05/05 01:44:54;;;;;;;;;;;;;;;11.24;100.00;99506.94;5075838;28;20311;-80
2022/05/05 01:47:22;;;;;;;;;;;;;;;11.16;100.00;99510.25;5074131;28;19924;-80
2022/05/05 01:49:49;;;;;;;;;;;;;;;11.20;100.00;99511.78;5075780;28;20019;-80
2022/05/05 01:52:17;;;;;;;;;;;;;;;11.26;100.00;99510.13;5074265;28;19925;-80
2022/05/05 01:54:44;;;;;;;;;;;;;;;11.28;100.00;99509.72;5075382;28;20376;-80
2022/05/05 01:57:11;;;;;;;;;;;;;;;11.61;100.00;99512.50;5074690;28;19924;-80
2022/05/05 01:59:39;;;;;;;;;;;;;;;11.59;100.00;99517.72;5091192;28;19939;-80
2022/05/05 02:02:06;;;;;;;;;;;;;;;11.60;100.00;99519.28;5057572;28;19925;-80
2022/05/05 02:04:33;;;;;;;;;;;;;;;11.22;100.00;99526.16;5063631;28;19924;-81
2022/05/05 02:07:01;;;;;;;;;;;;;;;11.51;100.00;99540.63;5082002;28;19943;-80
2022/05/05 02:09:28;;;;;;;;;;;;;;;10.92;100.00;99529.66;5081215;28;19924;-80
2022/05/05 02:11:55;;;;;;;;;;;;;;;11.33;100.00;99532.41;5080443;28;19930;-80
2022/05/05 02:14:23;;;;;;;;;;;;;;;11.29;100.00;99530.88;5079848;28;19928;-81
2022/05/05 02:16:51;;;;;;;;;;;;;;;10.94;100.00;99543.22;5074458;28;20011;-80
2022/05/05 02:19:18;;;;;;;;;;;;;;;11.35;100.00;99540.38;5074599;28;20047;-80
2022/05/05 02:21:45;;;;;;;;;;;;;;;11.32;100.00;99536.44;5057030;28;19928;-80
2022/05/05 02:24:13;;;;;;;;;;;;;;;11.50;100.00;99545.41;5073568;28;20384;-81
2022/05/05 02:26:41;;;;;;;;;;;;;;;11.51;100.00;99549.00;5073275;28;20339;-81
2022/05/05 02:29:08;;;;;;;;;;;;;;;11.23;100.00;99550.13;5090388;28;20015;-80
2022/05/05 02:31:35;;;;;;;;;;;;;;;11.32;100.00;99547.63;5073069;28;19925;-80
2022/05/05 02:34:08;;;;;;;;;;;;;;;10.97;100.00;99548.00;5073141;28;20383;-80
2022/05/05 02:39:22;;;;;;;;;;;;;;;10.64;100.00;99552.31;5056567;28;20027;-81
2022/05/05 02:41:49;;;;;;;;;;;;;;;10.73;100.00;99554.63;5056794;28;19963;-80
2022/05/05 02:44:16;;;;;;;;;;;;;;;10.61;100.00;99557.91;5073672;28;19931;-80
2022/05/05 02:46:43;;;;;;;;;;;;;;;10.72;100.00;99548.22;5073273;28;20022;-80
2022/05/05 02:49:12;;;;;;;;;;;;;;;10.59;100.00;99547.16;5107353;28;20084;-80
2022/05/05 02:51:39;;;;;;;;;;;;;;;10.78;100.00;99552.16;5106476;28;20266;-80
2022/05/05 02:56:52;;;;;;;;;;;;;;;10.51;100.00;99547.63;5056233;28;19946;-81
2022/05/05 02:59:20;;;;;;;;;;;;;;;10.57;100.00;99543.97;5056177;28;19924;-81
2022/05/05 03:01:47;;;;;;;;;;;;;;;10.36;100.00;99551.75;5072577;28;20382;-80
2022/05/05 03:04:14;;;;;;;;;;;;;;;10.61;100.00;99547.53;5073193;28;19925;-80
2022/05/05 03:06:42;;;;;;;;;;;;;;;10.50;100.00;99554.41;5106451;28;19930;-80
2022/05/05 03:09:09;;;;;;;;;;;;;;;10.43;100.00;99546.09;5072891;28;19924;-81
2022/05/05 03:11:36;;;;;;;;;;;;;;;10.51;100.00;99558.81;5072892;28;20035;-81
2022/05/05 03:14:03;;;;;;;;;;;;;;;10.41;100.00;99548.50;5072686;28;19994;-81
2022/05/05 03:16:31;;;;;;;;;;;;;;;10.32;100.00;99550.94;5073793;28;19932;-80
2022/05/05 03:18:58;;;;;;;;;;;;;;;10.36;100.00;99554.53;5072664;28;19947;-80
2022/05/05 03:21:26;;;;;;;;;;;;;;;10.50;100.00;99546.81;5073966;28;19931;-80
2022/05/05 03:23:53;;;;;;;;;;;;;;;10.37;100.00;99559.72;5073698;28;19925;-80
2022/05/05 03:26:20;;;;;;;;;;;;;;;10.49;100.00;99564.00;5055900;28;19924;-80
2022/05/05 03:28:47;;;;;;;;;;;;;;;10.46;100.00;99562.84;5073667;28;20415;-80
2022/05/05 03:31:15;;;;;;;;;;;;;;;10.37;100.00;99559.72;5073680;28;19924;-81
2022/05/05 03:33:43;;;;;;;;;;;;;;;10.47;100.00;99563.59;5072933;28;19924;-81
2022/05/05 03:36:10;;;;;;;;;;;;;;;10.47;100.00;99558.81;5072925;28;19932;-80
2022/05/05 03:38:37;;;;;;;;;;;;;;;10.35;100.00;99556.53;5106419;28;19929;-80
2022/05/05 03:41:05;;;;;;;;;;;;;;;10.60;100.00;99561.94;5089251;28;19928;-81
2022/05/05 03:43:33;;;;;;;;;;;;;;;10.68;100.00;99569.81;5073508;28;19931;-81
2022/05/05 03:46:02;;;;;;;;;;;;;;;10.51;100.00;99575.56;5074268;28;20326;-81
2022/05/05 03:48:31;;;;;;;;;;;;;;;10.47;100.00;99569.19;5076331;28;19932;-81
2022/05/05 03:50:58;;;;;;;;;;;;;;;10.46;100.00;99573.19;5077613;28;19928;-81
2022/05/05 03:53:25;;;;;;;;;;;;;;;10.53;100.00;99575.94;5077519;28;19925;-81
2022/05/05 03:55:52;;;;;;;;;;;;;;;10.64;100.00;99579.44;5076293;28;20041;-80
2022/05/05 03:58:19;;;;;;;;;;;;;;;10.71;100.00;99571.00;5076688;28;19925;-81
2022/05/05 04:00:46;;;;;;;;;;;;;;;10.46;100.00;99574.00;5076030;28;20013;-80
2022/05/05 04:03:32;;;;;;;;;;;;;;;10.73;100.00;99585.34;5077485;28;20284;-81
2022/05/05 04:06:04;;;;;;;;;;;;;;;10.59;100.00;99577.88;5060002;28;19930;-81
2022/05/05 04:08:31;;;;;;;;;;;;;;;10.60;100.00;99587.84;5076003;28;19925;-81
2022/05/05 04:10:59;;;;;;;;;;;;;;;10.68;100.00;99574.59;5076198;28;19924;-83
2022/05/05 04:13:26;;;;;;;;;;;;;;;10.66;100.00;99589.00;5109126;28;20379;-83
2022/05/05 04:15:54;;;;;;;;;;;;;;;10.82;100.00;99596.84;5075865;28;19924;-82
2022/05/05 04:18:21;;;;;;;;;;;;;;;11.14;100.00;99588.97;5075590;28;19928;-82
2022/05/05 04:20:48;;;;;;;;;;;;;;;10.89;100.00;99603.19;5109371;28;19928;-82
2022/05/05 04:23:15;;;;;;;;;;;;;;;10.72;100.00;99604.13;5059173;28;19931;-81
2022/05/05 04:25:59;;;;;;;;;;;;;;;10.51;100.00;99597.94;5061237;28;19924;-82
2022/05/05 04:28:27;;;;;;;;;;;;;;;10.53;100.00;99601.88;5058872;28;20388;-83
2022/05/05 04:30:54;;;;;;;;;;;;;;;10.49;100.00;99589.16;5076758;28;19930;-83
2022/05/05 04:33:21;;;;;;;;;;;;;;;10.43;100.00;99591.59;5059320;28;20011;-82
2022/05/05 04:35:49;;;;;;;;;;;;;;;10.72;100.00;99601.31;5092299;28;19932;-82
2022/05/05 04:38:16;;;;;;;;;;;;;;;10.79;100.00;99614.47;5058912;28;20372;-82
2022/05/05 04:40:44;;;;;;;;;;;;;;;10.56;100.00;99617.03;5076700;28;19924;-82
2022/05/05 04:43:11;;;;;;;;;;;;;;;10.58;100.00;99609.03;5092113;28;19934;-82
2022/05/05 04:45:39;;;;;;;;;;;;;;;10.99;100.00;99618.28;5075515;28;20383;-82
2022/05/05 04:48:06;;;;;;;;;;;;;;;10.75;100.00;99614.47;5076749;28;19967;-82
2022/05/05 04:50:33;;;;;;;;;;;;;;;10.64;100.00;99613.78;5076513;28;19924;-82
2022/05/05 04:53:00;;;;;;;;;;;;;;;10.90;100.00;99623.56;5108810;28;19974;-82
2022/05/05 04:55:27;;;;;;;;;;;;;;;10.83;100.00;99627.19;5058565;28;19985;-83
2022/05/05 04:57:54;;;;;;;;;;;;;;;10.99;100.00;99632.28;5091323;28;19931;-81
2022/05/05 05:00:22;;;;;;;;;;;;;;;11.08;100.00;99626.19;5075356;28;19931;-81
2022/05/05 05:02:50;;;;;;;;;;;;;;;11.18;100.00;99616.94;5075151;28;19924;-80
2022/05/05 05:05:17;;;;;;;;;;;;;;;10.88;100.00;99614.78;5075291;28;19951;-82
2022/05/05 05:07:44;;;;;;;;;;;;;;;11.21;100.00;99618.88;5076113;28;20521;-76
2022/05/05 05:10:11;;;;;;;;;;;;;;;11.31;100.00;99615.97;5074680;28;20042;-76
2022/05/05 05:12:38;;;;;;;;;;;;;;;11.37;100.00;99611.53;5075125;28;19929;-76
2022/05/05 05:15:06;;;;;;;;;;;;;;;11.58;100.00;99611.28;5075268;28;19924;-76
2022/05/05 05:17:34;;;;;;;;;;;;;;;11.86;100.00;99605.38;5090571;28;19983;-76
2022/05/05 05:20:01;;;;;;;;;;;;;;;11.16;100.00;99611.75;5073809;28;19931;-76
2022/05/05 05:22:29;;;;;;;;;;;;;;;11.11;100.00;99598.19;5073925;28;19978;-75
2022/05/05 05:24:56;;;;;;;;;;;;;;;11.11;100.00;99609.38;5074609;28;19952;-76
2022/05/05 05:27:23;;;;;;;;;;;;;;;11.37;100.00;99621.91;5073541;28;19959;-76
2022/05/05 05:29:50;;;;;;;;;;;;;;;11.42;100.00;99613.84;5057257;28;19924;-76
2022/05/05 05:32:19;;;;;;;;;;;;;;;11.36;100.00;99643.50;5107082;28;19925;-75
2022/05/05 05:34:46;;;;;;;;;;;;;;;11.37;100.00;99611.53;5074795;28;19986;-76
2022/05/05 05:37:13;;;;;;;;;;;;;;;11.42;100.00;99602.66;5074713;28;19931;-76
2022/05/05 05:39:40;;;;;;;;;;;;;;;11.56;100.00;99624.91;5074712;28;19977;-76
2022/05/05 05:42:08;;;;;;;;;;;;;;;11.63;100.00;99618.47;5074600;28;19978;-76
2022/05/05 05:44:35;;;;;;;;;;;;;;;11.63;100.00;99624.06;5073439;28;19928;-76
2022/05/05 05:47:02;;;;;;;;;;;;;;;11.88;100.00;99630.94;5074294;28;19932;-76
2022/05/05 05:49:30;;;;;;;;;;;;;;;11.91;100.00;99638.50;5073345;28;19924;-76
2022/05/05 05:51:57;;;;;;;;;;;;;;;12.10;100.00;99615.44;5075052;28;19930;-76
2022/05/05 05:54:24;;;;;;;;;;;;;;;12.10;100.00;99634.28;5069835;28;20566;-76
2022/05/05 05:56:52;;;;;;;;;;;;;;;12.27;100.00;99625.63;5069839;28;20386;-76
2022/05/05 05:59:19;;;;;;;;;;;;;;;12.50;100.00;99634.13;5071828;28;20015;-77
2022/05/05 06:04:32;;;;;;;;;;;;;;;13.79;100.00;99632.28;5070495;28;20106;-77
2022/05/05 06:06:59;;;;;;;;;;;;;;;13.87;100.00;99633.75;5070663;28;19929;-77
2022/05/05 06:09:26;;;;;;;;;;;;;;;13.29;100.00;99638.06;5070084;28;19954;-78
2022/05/05 06:11:53;;;;;;;;;;;;;;;13.21;100.00;99644.25;5070490;28;19929;-77
2022/05/05 06:14:20;;;;;;;;;;;;;;;13.43;100.00;99645.44;5071156;28;19928;-77
2022/05/05 06:16:47;;;;;;;;;;;;;;;13.25;100.00;99647.75;5071212;28;19924;-77
2022/05/05 06:19:14;;;;;;;;;;;;;;;14.27;100.00;99649.38;5070228;28;20525;-77
2022/05/05 06:21:41;;;;;;;;;;;;;;;14.27;100.00;99644.56;5069466;28;19925;-77
2022/05/05 06:24:09;;;;;;;;;;;;;;;14.61;100.00;99641.41;5070900;28;19924;-78
2022/05/05 06:26:36;;;;;;;;;;;;;;;14.12;100.00;99636.81;5069727;28;19998;-76
2022/05/05 06:29:03;;;;;;;;;;;;;;;13.91;100.00;99632.44;5052844;28;20011;-77
2022/05/05 06:31:30;;;;;;;;;;;;;;;13.29;100.00;99651.28;5069886;28;19924;-77
2022/05/05 06:33:57;;;;;;;;;;;;;;;13.33;100.00;99643.63;5071089;28;20042;-76
2022/05/05 06:36:25;;;;;;;;;;;;;;;13.14;100.00;99644.34;5070405;28;19973;-77
2022/05/05 06:38:52;;;;;;;;;;;;;;;13.70;100.00;99654.53;5070621;28;19935;-76
2022/05/05 06:41:22;;;;;;;;;;;;;;;13.54;100.00;99640.41;5070832;28;20045;-77
2022/05/05 06:43:50;;;;;;;;;;;;;;;13.16;100.00;99653.13;5070436;28;19990;-76
2022/05/05 06:46:17;;;;;;;;;;;;;;;13.79;100.00;99663.19;5071000;28;19948;-77
2022/05/05 06:48:51;;;;;;;;;;;;;;;13.54;100.00;99665.69;5070849;28;19928;-77
2022/05/05 06:51:18;;;;;;;;;;;;;;;13.40;100.00;99660.31;5070429;28;19924;-76
2022/05/05 06:53:45;;;;;;;;;;;;;;;13.42;100.00;99672.69;5070219;28;20023;-77
2022/05/05 06:56:12;;;;;;;;;;;;;;;13.82;100.00;99667.94;5070837;28;20334;-77
2022/05/05 06:58:39;;;;;;;;;;;;;;;13.18;100.00;99670.31;5070111;28;19940;-77
2022/05/05 07:05:23;;;;;;;;;;;;;;;12.14;100.00;99683.44;5070063;28;19924;-76
2022/05/05 07:06:40;;;;;;;;;;;;;;;13.66;100.00;99698.75;5070360;28;19974;-77
2022/05/05 07:11:53;;;;;;;;;;;;;;;12.62;100.00;99683.19;5070257;28;19929;-76
2022/05/05 07:14:20;;;;;;;;;;;;;;;12.40;100.00;99702.31;5070017;28;20295;-77
2022/05/05 07:16:47;;;;;;;;;;;;;;;12.90;100.00;99713.63;5052540;28;20272;-77
2022/05/05 07:19:15;;;;;;;;;;;;;;;12.41;100.00;99720.72;5070271;28;19925;-76
2022/05/05 07:21:42;;;;;;;;;;;;;;;13.31;100.00;99721.81;5069583;28;20369;-77
2022/05/05 07:24:10;;;;;;;;;;;;;;;13.31;100.00;99716.22;5070616;28;19924;-77
2022/05/05 07:26:37;;;;;;;;;;;;;;;13.68;100.00;99711.13;5068687;28;19940;-77
2022/05/05 07:29:05;;;;;;;;;;;;;;;13.55;100.00;99715.78;5069814;28;19924;-77
2022/05/05 07:31:32;;;;;;;;;;;;;;;12.71;100.00;99733.94;5070610;28;19936;-77
2022/05/05 07:33:59;;;;;;;;;;;;;;;12.87;100.00;99733.31;5069882;28;20015;-76
2022/05/05 07:36:26;;;;;;;;;;;;;;;13.24;100.00;99733.94;5069532;28;20023;-76
2022/05/05 07:38:53;;;;;;;;;;;;;;;12.86;100.00;99735.31;5070457;28;20573;-76
2022/05/05 07:41:22;;;;;;;;;;;;;;;13.01;100.00;99738.75;5068560;28;20418;-77
2022/05/05 07:43:52;;;;;;;;;;;;;;;12.88;100.00;99735.69;5069756;28;19935;-77
2022/05/05 07:46:19;;;;;;;;;;;;;;;13.09;100.00;99745.81;5070282;28;19924;-76
2022/05/05 07:48:47;;;;;;;;;;;;;;;14.61;100.00;99731.38;5069640;28;19928;-77
2022/05/05 07:51:14;;;;;;;;;;;;;;;15.00;100.00;99720.03;5067899;28;20366;-77
2022/05/05 07:53:41;;;;;;;;;;;;;;;15.62;100.00;99714.09;5070286;28;19924;-76
2022/05/05 07:56:09;;;;;;;;;;;;;;;16.62;100.00;99727.03;5069677;28;19985;-77
2022/05/05 07:58:36;;;;;;;;;;;;;;;15.10;100.00;99727.44;5069585;28;20015;-77
2022/05/05 08:01:03;;;;;;;;;;;;;;;15.93;100.00;99732.16;5069053;28;19932;-77
2022/05/05 08:03:32;;;;;;;;;;;;;;;14.66;100.00;99716.78;5071076;28;19925;-76
2022/05/05 08:06:00;;;;;;;;;;;;;;;14.58;100.00;99726.63;5071219;28;19970;-77
2022/05/05 08:08:27;;;;;;;;;;;;;;;14.65;100.00;99737.72;5071858;28;20391;-77
2022/05/05 08:10:54;;;;;;;;;;;;;;;14.75;100.00;99741.53;5073336;28;19924;-77
2022/05/05 08:13:21;;;;;;;;;;;;;;;15.57;100.00;99739.97;5072081;28;20383;-77
2022/05/05 08:15:50;;;;;;;;;;;;;;;15.48;100.00;99731.34;5073329;28;20383;-79
2022/05/05 08:18:17;;;;;;;;;;;;;;;15.55;100.00;99733.22;5071489;28;19978;-79
2022/05/05 08:20:44;;;;;;;;;;;;;;;15.74;100.00;99738.72;5073192;28;19924;-80
2022/05/05 08:23:12;;;;;;;;;;;;;;;15.36;100.00;99743.28;5069901;28;20426;-79
2022/05/05 08:28:28;;;;;;;;;;;;;;;15.94;100.00;99728.13;5089357;28;19924;-79
2022/05/05 08:30:56;;;;;;;;;;;;;;;15.35;100.00;99735.28;5071822;28;19924;-79
2022/05/05 08:33:27;;;;;;;;;;;;;;;14.87;100.00;99738.84;5072703;28;19931;-79
2022/05/05 08:35:55;;;;;;;;;;;;;;;14.51;100.00;99728.81;5074114;28;19925;-79
2022/05/05 08:38:22;;;;;;;;;;;;;;;15.12;100.00;99744.69;5073521;28;19924;-78
2022/05/05 08:40:49;;;;;;;;;;;;;;;15.87;100.00;99750.09;5072215;28;19924;-79
2022/05/05 08:43:16;;;;;;;;;;;;;;;15.91;100.00;99757.22;5075691;28;19924;-79
2022/05/05 08:45:45;;;;;;;;;;;;;;;15.21;100.00;99742.06;5077379;28;19932;-79
2022/05/05 08:48:13;;;;;;;;;;;;;;;15.29;100.00;99746.28;5078147;28;20023;-78
2022/05/05 08:50:41;;;;;;;;;;;;;;;15.44;100.00;99744.75;5080575;28;20001;-79
2022/05/05 08:53:08;;;;;;;;;;;;;;;14.94;100.00;99743.50;5075328;28;19924;-79
2022/05/05 08:55:35;;;;;;;;;;;;;;;15.41;100.00;99756.88;5073818;28;19931;-79
2022/05/05 08:58:03;;;;;;;;;;;;;;;15.70;100.00;99754.16;5074130;28;19931;-78
2022/05/05 09:00:30;;;;;;;;;;;;;;;16.43;100.00;99764.66;5072041;28;19935;-78
2022/05/05 09:03:04;;;;;;;;;;;;;;;16.25;100.00;99760.28;5071780;28;19947;-79
2022/05/05 09:05:43;;;;;;;;;;;;;;;16.43;100.00;99764.66;5073451;28;20322;-79
2022/05/05 09:08:11;;;;;;;;;;;;;;;15.82;100.00;99764.69;5072572;28;19931;-79
2022/05/05 09:10:43;;;;;;;;;;;;;;;16.42;100.00;99768.72;5072918;28;19924;-79
2022/05/05 09:13:10;;;;;;;;;;;;;;;17.05;100.00;99764.00;5070403;28;20117;-78
2022/05/05 09:15:40;;;;;;;;;;;;;;;17.67;100.00;99780.19;5071364;28;20430;-79
2022/05/05 09:18:14;;;;;;;;;;;;;;;17.14;100.00;99764.13;5072729;28;19932;-79
2022/05/05 09:20:42;;;;;;;;;;;;;;;17.81;100.00;99772.00;5073406;28;19925;-79
2022/05/05 09:23:31;;;;;;;;;;;;;;;17.61;100.00;99771.50;5072456;28;20387;-79
2022/05/05 09:26:02;;;;;;;;;;;;;;;17.73;100.00;99773.53;5071742;28;20022;-79
2022/05/05 09:28:35;;;;;;;;;;;;;;;18.18;100.00;99775.19;5072773;28;19929;-79
2022/05/05 09:31:07;;;;;;;;;;;;;;;17.74;100.00;99768.63;5054561;28;19931;-79
2022/05/05 09:33:34;;;;;;;;;;;;;;;17.22;100.00;99786.03;5072458;28;19925;-78
2022/05/05 09:36:02;;;;;;;;;;;;;;;16.67;100.00;99774.44;5071683;28;19924;-78
2022/05/05 09:38:48;;;;;;;;;;;;;;;15.87;100.00;99784.66;5072334;28;20472;-79
2022/05/05 09:41:15;;;;;;;;;;;;;;;16.08;100.00;99784.09;5071709;28;19931;-79
2022/05/05 09:43:42;;;;;;;;;;;;;;;16.31;100.00;99785.13;5072112;28;19924;-79
2022/05/05 09:46:23;;;;;;;;;;;;;;;16.30;100.00;99786.38;5072089;28;20387;-79
2022/05/05 09:48:50;;;;;;;;;;;;;;;16.93;100.00;99785.34;5072121;28;19929;-79
2022/05/05 09:51:18;;;;;;;;;;;;;;;17.56;100.00;99774.88;5071338;28;20023;-80
2022/05/05 09:59:29;;;;;;;;;;;;;;;17.58;100.00;99786.50;5049715;28;19925;-83
2022/05/05 10:02:05;;;;;;;;;;;;;;;17.61;100.00;99768.69;5033304;28;19936;-82
2022/05/05 10:04:36;;;;;;;;;;;;;;;17.26;100.00;99766.16;5050499;28;20019;-82
2022/05/05 10:07:03;;;;;;;;;;;;;;;17.31;100.00;99774.09;5050275;28;19952;-84
2022/05/05 10:09:31;;;;;;;;;;;;;;;17.78;100.00;99775.75;5049124;28;19931;-84
2022/05/05 10:11:58;;;;;;;;;;;;;;;17.32;100.00;99759.50;5049912;28;19925;-83
2022/05/05 10:14:26;;;;;;;;;;;;;;;17.71;100.00;99769.53;5017207;28;19936;-83
2022/05/05 10:16:55;;;;;;;;;;;;;;;18.22;100.00;99765.31;5033131;28;20362;-84
2022/05/05 10:19:23;;;;;;;;;;;;;;;18.13;100.00;99762.41;5049738;28;19924;-80
2022/05/05 10:21:54;;;;;;;;;;;;;;;17.67;100.00;99752.72;5033595;28;19925;-80
2022/05/05 10:24:24;;;;;;;;;;;;;;;17.89;100.00;99758.44;5033001;28;19982;-80
2022/05/05 10:26:51;;;;;;;;;;;;;;;18.00;100.00;99764.50;5049618;28;20363;-80
2022/05/05 10:29:30;;;;;;;;;;;;;;;18.23;100.00;99751.97;5049681;28;19929;-80
2022/05/05 10:32:10;;;;;;;;;;;;;;;17.97;100.00;99762.59;5049668;28;19968;-80
2022/05/05 10:34:38;;;;;;;;;;;;;;;18.46;100.00;99755.19;5069294;28;19925;-80
2022/05/05 10:37:10;;;;;;;;;;;;;;;18.38;100.00;99755.91;5054483;28;19925;-80
2022/05/05 10:39:46;;;;;;;;;;;;;;;18.69;100.00;99751.88;5070454;28;19935;-79
2022/05/05 10:42:15;;;;;;;;;;;;;;;19.01;100.00;99740.13;5071724;28;19932;-80
2022/05/05 10:45:00;;;;;;;;;;;;;;;19.11;100.00;99741.75;5070135;28;19928;-80
2022/05/05 10:47:47;;;;;;;;;;;;;;;19.36;100.00;99755.72;5071523;28;19931;-80
2022/05/05 10:50:28;;;;;;;;;;;;;;;19.51;100.00;99753.91;5072488;28;19931;-80
2022/05/05 10:52:55;;;;;;;;;;;;;;;19.12;100.00;99749.00;5056940;28;19924;-79
2022/05/05 10:55:25;;;;;;;;;;;;;;;19.25;100.00;99751.72;5074258;28;19947;-80
2022/05/05 10:58:01;;;;;;;;;;;;;;;19.56;100.00;99758.97;5073243;28;19924;-80
2022/05/05 11:00:41;;;;;;;;;;;;;;;19.65;100.00;99764.66;5074554;28;19925;-80
2022/05/05 11:03:09;;;;;;;;;;;;;;;19.16;100.00;99760.97;5057022;28;19986;-80
2022/05/05 11:05:37;;;;;;;;;;;;;;;19.48;100.00;99760.50;5073165;28;19924;-80
2022/05/05 11:08:14;;;;;;;;;;;;;;;20.10;100.00;99761.09;5072926;28;19959;-80
2022/05/05 11:10:41;;;;;;;;;;;;;;;19.83;100.00;99763.91;5056753;28;20019;-80
2022/05/05 11:13:28;;;;;;;;;;;;;;;19.16;100.00;99760.97;5073370;28;19931;-80
2022/05/05 11:21:36;;;;;;;;;;;;;;;20.17;100.00;99758.00;5074253;28;20014;-80
2022/05/05 11:24:04;;;;;;;;;;;;;;;19.59;100.00;99754.38;5073015;28;19924;-79
2022/05/05 11:26:34;;;;;;;;;;;;;;;20.10;100.00;99758.25;5056422;28;19925;-80
2022/05/05 11:29:14;;;;;;;;;;;;;;;19.96;100.00;99761.72;5068350;28;19931;-81
2022/05/05 11:31:55;;;;;;;;;;;;;;;19.34;100.00;99765.97;5069570;28;19928;-81
2022/05/05 11:34:22;;;;;;;;;;;;;;;19.84;100.00;99764.69;5070277;28;19925;-81
2022/05/05 11:36:49;;;;;;;;;;;;;;;19.79;100.00;99762.47;5069636;28;19924;-81
2022/05/05 11:39:20;;;;;;;;;;;;;;;19.75;100.00;99764.66;5070142;28;20409;-81
2022/05/05 11:41:58;;;;;;;;;;;;;;;20.29;100.00;99759.09;5070390;28;19950;-81
2022/05/05 11:44:26;;;;;;;;;;;;;;;19.55;100.00;99754.53;5069949;28;20319;-81
2022/05/05 11:48:31;;;;;;;;;;;;;;;18.15;100.00;99774.06;5108960;27;19924;-81
2022/05/05 11:51:06;;;;;;;;;;;;;;;18.16;100.00;99781.31;5107856;28;20428;-80
2022/05/05 11:53:35;;;;;;;;;;;;;;;18.35;100.00;99773.75;5108970;28;20306;-81
2022/05/05 11:56:03;;;;;;;;;;;;;;;18.89;100.00;99774.19;5109039;28;19924;-80
2022/05/05 12:01:38;;;;;;;;;;;;;;;18.17;100.00;99780.06;5108889;28;20360;-80
2022/05/05 12:04:06;;;;;;;;;;;;;;;18.75;100.00;99786.84;5090541;28;19928;-81
2022/05/05 12:06:33;;;;;;;;;;;;;;;18.66;100.00;99778.28;5090890;28;19969;-81
2022/05/05 12:09:01;;;;;;;;;;;;;;;18.85;100.00;99777.16;5076476;28;19929;-81
2022/05/05 12:11:29;;;;;;;;;;;;;;;18.40;100.00;99776.84;5087253;28;19924;-81
2022/05/05 12:14:00;;;;;;;;;;;;;;;18.32;100.00;99774.69;5088443;28;20028;-79
2022/05/05 12:16:34;;;;;;;;;;;;;;;18.00;100.00;99781.47;5088269;28;19973;-83
2022/05/05 12:19:10;;;;;;;;;;;;;;;18.39;100.00;99780.91;5088334;28;19978;-83
2022/05/05 12:21:53;;;;;;;;;;;;;;;17.48;100.00;99778.38;5070126;28;19929;-82
2022/05/05 12:24:22;;;;;;;;;;;;;;;17.98;100.00;99780.34;5053899;28;19925;-82
2022/05/05 12:26:50;;;;;;;;;;;;;;;18.07;100.00;99781.22;5087740;28;19947;-83
2022/05/05 12:29:19;;;;;;;;;;;;;;;18.01;100.00;99776.63;5088411;28;20331;-82
2022/05/05 12:31:57;;;;;;;;;;;;;;;18.24;100.00;99776.97;5070691;28;19998;-83
2022/05/05 12:34:33;;;;;;;;;;;;;;;18.10;100.00;99780.31;5087353;28;20007;-84
2022/05/05 12:37:15;;;;;;;;;;;;;;;18.09;100.00;99773.06;5070322;28;20538;-82
2022/05/05 12:39:52;;;;;;;;;;;;;;;17.86;100.00;99782.75;5086922;28;20397;-83
2022/05/05 12:42:23;;;;;;;;;;;;;;;18.19;100.00;99780.38;5070278;28;20034;-83
2022/05/05 12:44:51;;;;;;;;;;;;;;;17.96;100.00;99772.34;5086645;28;19932;-82
2022/05/05 12:47:22;;;;;;;;;;;;;;;18.09;100.00;99781.56;5086076;28;19928;-82
2022/05/05 12:49:49;;;;;;;;;;;;;;;18.19;100.00;99782.44;5070122;28;19924;-83
2022/05/05 13:00:48;;;;;;;;;;;;;;;18.50;100.00;99772.81;5074438;28;19932;-83
2022/05/05 13:03:29;;;;;;;;;;;;;;;18.85;100.00;99774.34;5073426;28;20399;-83
2022/05/05 13:05:56;;;;;;;;;;;;;;;18.90;100.00;99770.88;5039614;28;20372;-84
2022/05/05 13:08:40;;;;;;;;;;;;;;;18.81;100.00;99772.88;5072820;28;19924;-83
2022/05/05 13:11:17;;;;;;;;;;;;;;;18.95;100.00;99778.00;5057698;28;19973;-83
2022/05/05 13:14:13;;;;;;;;;;;;;;;18.94;100.00;99776.41;5055834;28;19924;-83
2022/05/05 13:16:40;;;;;;;;;;;;;;;18.86;100.00;99781.56;5073046;28;20010;-82
2022/05/05 13:19:09;;;;;;;;;;;;;;;18.89;100.00;99780.63;5072412;28;20030;-81
2022/05/05 13:21:38;;;;;;;;;;;;;;;19.02;100.00;99775.66;5073401;28;19925;-81
2022/05/05 13:24:07;;;;;;;;;;;;;;;18.41;100.00;99778.41;5073764;28;19924;-85
2022/05/05 13:26:35;;;;;;;;;;;;;;;18.42;100.00;99779.22;5072936;28;19935;-82
2022/05/05 13:29:03;;;;;;;;;;;;;;;17.81;100.00;99793.84;5074459;28;19931;-82
2022/05/05 13:31:30;;;;;;;;;;;;;;;18.16;100.00;99786.19;5076098;28;19950;-88
2022/05/05 13:33:57;;;;;;;;;;;;;;;18.47;100.00;99785.06;5025255;28;20406;-81
2022/05/05 13:36:24;;;;;;;;;;;;;;;18.63;100.00;99784.88;5074713;28;19924;-81